createdAt,value
2022-09-12T00:00:06.010Z,24.70
2022-09-12T00:02:32.762Z,24.70
2022-09-12T00:05:00.312Z,24.70
2022-09-12T00:07:26.980Z,24.70
2022-09-12T00:09:53.606Z,24.80
2022-09-12T00:12:20.465Z,24.70
2022-09-12T00:14:47.131Z,24.70
2022-09-12T00:17:13.806Z,24.70
2022-09-12T00:19:40.477Z,24.70
2022-09-12T00:22:07.413Z,24.70
2022-09-12T00:24:34.182Z,24.60
2022-09-12T00:27:00.973Z,24.60
2022-09-12T00:29:27.662Z,24.60
2022-09-12T00:31:54.343Z,24.70
2022-09-12T00:34:21.148Z,24.70
2022-09-12T00:39:32.044Z,24.70
2022-09-12T00:41:58.677Z,24.60
2022-09-12T00:44:44.025Z,24.40
2022-09-12T00:47:33.374Z,24.30
2022-09-12T00:50:06.131Z,24.10
2022-09-12T00:52:47.591Z,24.00
2022-09-12T00:55:19.050Z,23.90
2022-09-12T00:57:50.173Z,23.80
2022-09-12T01:00:18.591Z,23.90
2022-09-12T01:02:56.077Z,24.00
2022-09-12T01:05:23.646Z,24.20
2022-09-12T01:07:52.495Z,24.30
2022-09-12T01:10:38.017Z,24.40
2022-09-12T01:13:05.973Z,24.40
2022-09-12T01:15:32.760Z,24.50
2022-09-12T01:18:02.547Z,24.60
2022-09-12T01:20:38.456Z,24.50
2022-09-12T01:23:17.395Z,24.40
2022-09-12T01:26:13.461Z,24.30
2022-09-12T01:28:40.153Z,24.40
2022-09-12T01:31:11.558Z,24.40
2022-09-12T01:33:51.472Z,24.50
2022-09-12T01:36:45.997Z,24.60
2022-09-12T01:42:15.280Z,24.60
2022-09-12T01:44:56.778Z,24.20
2022-09-12T01:47:29.402Z,24.30
2022-09-12T01:49:58.972Z,24.30
2022-09-12T01:52:25.571Z,24.30
2022-09-12T01:55:11.190Z,24.20
2022-09-12T01:57:45.675Z,23.80
2022-09-12T02:00:13.071Z,23.60
2022-09-12T02:02:39.687Z,23.50
2022-09-12T02:05:09.375Z,23.90
2022-09-12T02:07:38.925Z,24.20
2022-09-12T02:10:09.490Z,24.40
2022-09-12T02:12:42.393Z,24.40
2022-09-12T02:17:55.492Z,24.50
2022-09-12T02:20:47.559Z,24.40
2022-09-12T02:23:23.613Z,24.50
2022-09-12T02:25:52.700Z,24.50
2022-09-12T02:28:24.737Z,24.50
2022-09-12T02:30:59.352Z,24.50
2022-09-12T02:33:44.563Z,24.50
2022-09-12T02:36:15.413Z,24.50
2022-09-12T02:38:46.066Z,24.30
2022-09-12T02:41:14.895Z,23.90
2022-09-12T02:43:41.711Z,23.60
2022-09-12T02:46:10.440Z,23.40
2022-09-12T02:48:41.435Z,23.60
2022-09-12T02:51:08.415Z,23.50
2022-09-12T02:53:35.848Z,23.40
2022-09-12T02:56:03.480Z,23.20
2022-09-12T02:58:31.385Z,23.10
2022-09-12T03:01:10.320Z,23.10
2022-09-12T03:03:55.725Z,23.00
2022-09-12T03:06:25.393Z,23.10
2022-09-12T03:09:00.406Z,23.20
2022-09-12T03:11:27.203Z,23.00
2022-09-12T03:14:08.924Z,23.00
2022-09-12T03:16:41.723Z,23.30
2022-09-12T03:19:09.066Z,23.10
2022-09-12T03:21:54.774Z,23.10
2022-09-12T03:24:26.146Z,23.20
2022-09-12T03:26:55.430Z,23.10
2022-09-12T03:29:24.055Z,22.90
2022-09-12T03:31:54.912Z,22.90
2022-09-12T03:34:40.780Z,23.40
2022-09-12T03:39:52.000Z,23.60
2022-09-12T03:42:18.819Z,23.60
2022-09-12T03:44:45.495Z,23.70
2022-09-12T03:47:12.205Z,23.80
2022-09-12T03:49:57.656Z,23.60
2022-09-12T03:52:24.305Z,23.30
2022-09-12T03:54:51.123Z,23.00
2022-09-12T04:00:02.430Z,22.80
2022-09-12T04:02:29.284Z,23.00
2022-09-12T04:04:55.990Z,23.30
2022-09-12T04:10:07.311Z,24.00
2022-09-12T04:12:35.563Z,24.10
2022-09-12T04:15:02.380Z,24.10
2022-09-12T04:17:29.215Z,24.10
2022-09-12T04:19:55.835Z,24.10
2022-09-12T04:22:22.513Z,24.20
2022-09-12T04:27:33.717Z,24.20
2022-09-12T04:30:01.324Z,24.20
2022-09-12T04:32:29.322Z,24.30
2022-09-12T04:34:55.983Z,24.20
2022-09-12T04:37:23.820Z,24.30
2022-09-12T04:39:50.883Z,24.20
2022-09-12T04:42:17.768Z,24.20
2022-09-12T04:44:44.641Z,24.10
2022-09-12T04:47:11.299Z,24.10
2022-09-12T04:49:37.950Z,24.10
2022-09-12T04:52:23.158Z,24.20
2022-09-12T04:57:34.067Z,24.30
2022-09-12T05:00:06.489Z,24.20
2022-09-12T05:02:34.779Z,24.20
2022-09-12T05:05:01.453Z,24.30
2022-09-12T05:07:28.094Z,24.30
2022-09-12T05:09:55.363Z,24.40
2022-09-12T05:12:22.109Z,24.30
2022-09-12T05:14:48.780Z,24.20
2022-09-12T05:17:15.570Z,24.20
2022-09-12T05:19:42.400Z,24.30
2022-09-12T05:22:09.735Z,24.20
2022-09-12T05:24:39.420Z,24.20
2022-09-12T05:30:08.247Z,23.50
2022-09-12T05:32:35.534Z,23.30
2022-09-12T05:35:02.237Z,23.20
2022-09-12T05:37:28.987Z,23.50
2022-09-12T05:39:55.753Z,23.60
2022-09-12T05:42:23.627Z,23.90
2022-09-12T05:44:50.301Z,24.00
2022-09-12T05:47:17.395Z,23.90
2022-09-12T05:49:45.358Z,24.00
2022-09-12T05:52:12.620Z,24.20
2022-09-12T05:54:39.320Z,24.30
2022-09-12T05:57:06.160Z,24.40
2022-09-12T05:59:32.897Z,24.50
2022-09-12T06:02:00.362Z,24.50
2022-09-12T06:04:28.163Z,24.60
2022-09-12T06:06:55.232Z,24.60
2022-09-12T06:12:08.706Z,24.70
2022-09-12T06:14:35.385Z,24.70
2022-09-12T06:17:20.950Z,24.70
2022-09-12T06:19:47.779Z,24.80
2022-09-12T06:22:14.418Z,24.70
2022-09-12T06:24:41.208Z,24.70
2022-09-12T06:27:07.821Z,24.60
2022-09-12T06:29:34.515Z,24.60
2022-09-12T06:32:01.878Z,24.70
2022-09-12T06:34:28.644Z,24.50
2022-09-12T06:36:55.277Z,24.40
2022-09-12T06:39:22.803Z,24.50
2022-09-12T06:41:50.833Z,24.70
2022-09-12T06:44:21.161Z,24.80
2022-09-12T06:46:48.458Z,24.90
2022-09-12T06:49:15.390Z,24.90
2022-09-12T06:51:42.741Z,24.80
2022-09-12T06:54:09.798Z,25.00
2022-09-12T06:56:37.725Z,25.00
2022-09-12T06:59:04.366Z,24.90
2022-09-12T07:04:16.093Z,25.00
2022-09-12T07:06:44.664Z,25.00
2022-09-12T07:09:12.751Z,25.10
2022-09-12T07:11:40.477Z,25.10
2022-09-12T07:14:08.282Z,25.10
2022-09-12T07:16:35.894Z,25.10
2022-09-12T07:19:03.593Z,25.20
2022-09-12T07:21:30.515Z,25.10
2022-09-12T07:24:00.090Z,25.20
2022-09-12T07:26:27.556Z,25.20
2022-09-12T07:29:07.818Z,25.20
2022-09-12T07:31:39.944Z,25.20
2022-09-12T07:34:07.004Z,25.30
2022-09-12T07:36:34.336Z,25.20
2022-09-12T07:39:01.600Z,25.30
2022-09-12T07:41:30.193Z,25.30
2022-09-12T07:43:57.758Z,25.30
2022-09-12T07:46:25.041Z,25.20
2022-09-12T07:48:52.438Z,25.30
2022-09-12T07:51:19.221Z,25.30
2022-09-12T07:53:46.024Z,25.20
2022-09-12T07:56:13.433Z,25.30
2022-09-12T08:01:24.935Z,25.30
2022-09-12T08:03:55.675Z,25.30
2022-09-12T08:06:25.663Z,25.30
2022-09-12T08:08:53.950Z,25.20
2022-09-12T08:11:21.885Z,25.30
2022-09-12T08:13:54.342Z,25.30
2022-09-12T08:16:22.521Z,25.30
2022-09-12T08:18:49.698Z,25.30
2022-09-12T08:21:35.222Z,25.40
2022-09-12T08:24:03.146Z,25.40
2022-09-12T08:26:30.511Z,25.40
2022-09-12T08:28:57.349Z,25.40
2022-09-12T08:31:25.228Z,25.40
2022-09-12T08:33:51.943Z,25.40
2022-09-12T08:36:19.681Z,25.40
2022-09-12T08:38:47.233Z,25.30
2022-09-12T08:41:28.103Z,25.40
2022-09-12T08:47:00.917Z,25.40
2022-09-12T08:49:33.895Z,25.40
2022-09-12T08:52:05.260Z,25.40
2022-09-12T08:54:32.777Z,25.40
2022-09-12T08:57:02.923Z,25.40
2022-09-12T08:59:40.855Z,25.40
2022-09-12T09:02:26.630Z,25.40
2022-09-12T09:05:01.783Z,25.50
2022-09-12T09:07:47.373Z,25.50
2022-09-12T09:10:17.171Z,25.50
2022-09-12T09:12:43.800Z,25.50
2022-09-12T09:15:22.293Z,25.60
2022-09-12T09:17:55.467Z,25.50
2022-09-12T09:20:28.696Z,25.60
2022-09-12T09:23:15.340Z,25.50
2022-09-12T09:26:01.897Z,25.60
2022-09-12T09:28:39.551Z,25.60
2022-09-12T09:31:12.113Z,25.60
2022-09-12T09:33:38.798Z,25.60
2022-09-12T09:36:15.021Z,25.70
2022-09-12T09:38:44.725Z,25.60
2022-09-12T09:41:30.314Z,25.70
2022-09-12T09:43:57.912Z,25.70
2022-09-12T09:46:24.816Z,25.60
2022-09-12T09:48:51.864Z,25.60
2022-09-12T09:51:24.749Z,25.50
2022-09-12T09:54:16.648Z,25.50
2022-09-12T09:56:43.350Z,25.50
2022-09-12T09:59:11.956Z,25.60
2022-09-12T10:04:58.792Z,25.70
2022-09-12T10:07:26.446Z,25.70
2022-09-12T10:10:11.680Z,25.60
2022-09-12T10:12:38.646Z,25.60
2022-09-12T10:15:18.125Z,25.50
2022-09-12T10:20:49.505Z,25.50
2022-09-12T10:23:19.385Z,25.50
2022-09-12T10:25:47.797Z,25.40
2022-09-12T10:28:22.847Z,25.40
2022-09-12T10:30:54.584Z,25.30
2022-09-12T10:33:23.227Z,25.40
2022-09-12T10:35:49.968Z,25.50
2022-09-12T10:38:31.367Z,25.50
2022-09-12T10:40:59.280Z,25.50
2022-09-12T10:43:53.766Z,25.50
2022-09-12T10:46:22.819Z,25.60
2022-09-12T10:48:50.350Z,25.60
2022-09-12T10:51:28.098Z,25.70
2022-09-12T10:53:59.994Z,25.80
2022-09-12T10:56:34.563Z,25.70
2022-09-12T10:59:03.970Z,25.50
2022-09-12T11:01:45.066Z,25.70
2022-09-12T11:04:20.635Z,25.70
2022-09-12T11:07:06.284Z,25.70
2022-09-12T11:09:47.476Z,25.80
2022-09-12T11:12:33.045Z,25.70
2022-09-12T11:15:18.948Z,25.60
2022-09-12T11:18:04.195Z,25.70
2022-09-12T11:20:49.655Z,25.70
2022-09-12T11:23:22.422Z,25.70
2022-09-12T11:25:49.036Z,25.60
2022-09-12T11:28:15.643Z,25.50
2022-09-12T11:31:02.783Z,25.40
2022-09-12T11:33:42.667Z,25.50
2022-09-12T11:36:17.870Z,25.60
2022-09-12T11:38:51.391Z,25.50
2022-09-12T11:41:26.446Z,25.50
2022-09-12T11:44:03.613Z,25.50
2022-09-12T11:46:37.915Z,25.60
2022-09-12T11:49:13.784Z,25.60
2022-09-12T11:51:42.764Z,25.60
2022-09-12T11:54:09.360Z,25.50
2022-09-12T11:56:38.219Z,25.40
2022-09-12T11:59:28.196Z,25.30
2022-09-12T12:01:59.158Z,25.30
2022-09-12T12:04:30.210Z,25.40
2022-09-12T12:07:03.290Z,25.40
2022-09-12T12:09:31.584Z,25.40
2022-09-12T12:12:00.829Z,25.40
2022-09-12T12:14:32.001Z,25.40
2022-09-12T12:17:36.144Z,25.30
2022-09-12T12:20:07.694Z,25.20
2022-09-12T12:22:36.002Z,25.30
2022-09-12T12:25:29.395Z,25.40
2022-09-12T12:31:00.177Z,25.20
2022-09-12T12:33:26.977Z,25.50
2022-09-12T12:35:59.646Z,25.40
2022-09-12T12:38:36.233Z,25.30
2022-09-12T12:44:22.467Z,25.30
2022-09-12T12:47:24.519Z,25.40
2022-09-12T12:50:14.018Z,25.30
2022-09-12T12:52:52.087Z,25.30
2022-09-12T12:55:26.414Z,25.20
2022-09-12T12:57:54.382Z,25.30
2022-09-12T13:00:20.987Z,25.20
2022-09-12T13:02:52.692Z,25.20
2022-09-12T13:05:24.315Z,25.20
2022-09-12T13:07:59.326Z,25.40
2022-09-12T13:13:22.005Z,25.70
2022-09-12T13:15:51.375Z,25.60
2022-09-12T13:18:29.163Z,25.40
2022-09-12T13:21:16.498Z,25.30
2022-09-12T13:23:44.066Z,25.30
2022-09-12T13:26:29.499Z,25.30
2022-09-12T13:29:15.062Z,25.30
2022-09-12T13:31:47.110Z,25.30
2022-09-12T13:34:43.273Z,25.30
2022-09-12T13:37:16.259Z,25.20
2022-09-12T13:39:50.559Z,25.20
2022-09-12T13:42:38.681Z,25.30
2022-09-12T13:45:19.686Z,25.30
2022-09-12T13:48:06.765Z,25.30
2022-09-12T13:50:39.248Z,25.40
2022-09-12T13:53:07.291Z,25.40
2022-09-12T13:55:36.451Z,25.50
2022-09-12T13:58:04.523Z,25.40
2022-09-12T14:00:33.173Z,25.40
2022-09-12T14:03:18.453Z,25.40
2022-09-12T14:05:46.766Z,25.40
2022-09-12T14:08:17.026Z,25.30
2022-09-12T14:10:45.034Z,25.30
2022-09-12T14:13:13.721Z,25.30
2022-09-12T14:15:44.463Z,25.30
2022-09-12T14:18:40.484Z,25.40
2022-09-12T14:21:12.178Z,25.20
2022-09-12T14:23:43.186Z,25.20
2022-09-12T14:26:12.310Z,25.10
2022-09-12T14:28:43.202Z,25.10
2022-09-12T14:31:12.889Z,25.20
2022-09-12T14:33:50.309Z,25.40
2022-09-12T14:36:24.898Z,25.50
2022-09-12T14:38:56.791Z,25.40
2022-09-12T14:41:28.603Z,25.20
2022-09-12T14:43:59.825Z,25.10
2022-09-12T14:46:34.547Z,25.10
2022-09-12T14:49:10.482Z,25.10
2022-09-12T14:51:55.938Z,25.10
2022-09-12T14:54:28.792Z,25.10
2022-09-12T14:57:03.132Z,25.10
2022-09-12T14:59:36.217Z,25.10
2022-09-12T15:02:11.993Z,25.10
2022-09-12T15:04:39.731Z,25.20
2022-09-12T15:07:35.840Z,25.20
2022-09-12T15:10:25.927Z,25.20
2022-09-12T15:13:19.645Z,25.30
2022-09-12T15:18:35.054Z,25.40
2022-09-12T15:21:02.936Z,25.50
2022-09-12T15:23:48.254Z,25.40
2022-09-12T15:26:16.590Z,25.30
2022-09-12T15:28:43.590Z,25.30
2022-09-12T15:33:57.685Z,25.40
2022-09-12T15:36:24.859Z,25.40
2022-09-12T15:38:52.304Z,25.50
2022-09-12T15:41:37.525Z,25.50
2022-09-12T15:47:10.541Z,25.30
2022-09-12T15:49:37.213Z,25.30
2022-09-12T15:52:03.962Z,25.30
2022-09-12T15:54:30.747Z,25.40
2022-09-12T15:56:57.466Z,25.40
2022-09-12T15:59:24.151Z,25.40
2022-09-12T16:01:51.124Z,25.40
2022-09-12T16:04:23.202Z,25.40
2022-09-12T16:06:50.550Z,25.30
2022-09-12T16:09:17.338Z,25.30
2022-09-12T16:11:45.136Z,25.30
2022-09-12T16:14:15.488Z,25.30
2022-09-12T16:16:42.692Z,25.40
2022-09-12T16:19:10.025Z,25.40
2022-09-12T16:21:37.118Z,25.50
2022-09-12T16:24:04.716Z,25.50
2022-09-12T16:26:31.343Z,25.40
2022-09-12T16:34:27.182Z,25.50
2022-09-12T16:36:53.980Z,25.40
2022-09-12T16:39:20.598Z,25.50
2022-09-12T16:41:47.327Z,25.40
2022-09-12T16:44:14.472Z,25.40
2022-09-12T16:46:41.370Z,25.40
2022-09-12T16:49:26.830Z,25.40
2022-09-12T16:51:53.543Z,25.50
2022-09-12T16:54:20.248Z,25.50
2022-09-12T16:59:31.042Z,25.50
2022-09-12T17:01:57.917Z,25.50
2022-09-12T17:04:24.644Z,25.50
2022-09-12T17:06:51.352Z,25.50
2022-09-12T17:09:36.672Z,25.40
2022-09-12T17:12:03.364Z,25.40
2022-09-12T17:14:30.072Z,25.40
2022-09-12T17:16:56.892Z,25.40
2022-09-12T17:19:29.695Z,25.40
2022-09-12T17:21:57.592Z,25.30
2022-09-12T17:24:24.282Z,25.30
2022-09-12T17:26:51.219Z,25.30
2022-09-12T17:32:02.188Z,25.30
2022-09-12T17:34:29.068Z,25.20
2022-09-12T17:37:14.023Z,25.20
2022-09-12T17:39:41.255Z,25.30
2022-09-12T17:42:08.185Z,25.30
2022-09-12T17:44:35.831Z,25.30
2022-09-12T17:47:04.048Z,25.30
2022-09-12T17:49:31.775Z,25.30
2022-09-12T17:51:58.425Z,25.30
2022-09-12T17:54:25.170Z,25.30
2022-09-12T17:56:52.204Z,25.30
2022-09-12T17:59:20.232Z,25.30
2022-09-12T18:02:05.495Z,25.30
2022-09-12T18:04:32.473Z,25.30
2022-09-12T18:07:00.467Z,25.30
2022-09-12T18:09:28.246Z,25.20
2022-09-12T18:11:55.240Z,25.30
2022-09-12T18:14:22.258Z,25.20
2022-09-12T18:16:49.342Z,25.30
2022-09-12T18:19:16.288Z,25.30
2022-09-12T18:22:01.967Z,25.30
2022-09-12T18:24:28.850Z,25.30
2022-09-12T18:26:56.680Z,25.20
2022-09-12T18:29:23.833Z,25.20
2022-09-12T18:31:50.499Z,25.20
2022-09-12T18:34:17.585Z,25.20
2022-09-12T18:36:45.808Z,25.20
2022-09-12T18:39:12.720Z,25.20
2022-09-12T18:41:39.790Z,25.20
2022-09-12T18:44:07.121Z,25.20
2022-09-12T18:46:34.915Z,25.30
2022-09-12T18:49:02.065Z,25.30
2022-09-12T18:51:33.731Z,25.20
2022-09-12T18:54:01.414Z,25.20
2022-09-12T18:56:32.227Z,25.20
2022-09-12T18:58:59.593Z,25.30
2022-09-12T19:01:45.870Z,25.20
2022-09-12T19:04:13.610Z,25.20
2022-09-12T19:06:41.751Z,25.20
2022-09-12T19:09:09.381Z,25.20
2022-09-12T19:14:22.871Z,25.20
2022-09-12T19:17:08.908Z,25.20
2022-09-12T19:19:39.939Z,25.10
2022-09-12T19:22:07.231Z,25.20
2022-09-12T19:24:34.076Z,25.10
2022-09-12T19:27:00.776Z,25.20
2022-09-12T19:29:27.475Z,25.20
2022-09-12T19:31:55.053Z,25.20
2022-09-12T19:34:21.833Z,25.20
2022-09-12T19:36:48.572Z,25.20
2022-09-12T19:39:16.426Z,25.10
2022-09-12T19:41:43.453Z,25.10
2022-09-12T19:44:29.336Z,25.10
2022-09-12T19:46:56.044Z,25.20
2022-09-12T19:49:22.731Z,25.20
2022-09-12T19:51:49.571Z,25.20
2022-09-12T19:54:16.233Z,25.20
2022-09-12T19:56:42.869Z,25.20
2022-09-12T19:59:09.571Z,25.20
2022-09-12T20:01:37.496Z,25.20
2022-09-12T20:04:04.663Z,25.20
2022-09-12T20:06:31.392Z,25.20
2022-09-12T20:08:58.127Z,25.20
2022-09-12T20:11:25.582Z,25.10
2022-09-12T20:13:52.771Z,25.10
2022-09-12T20:16:22.353Z,25.20
2022-09-12T20:18:52.958Z,25.20
2022-09-12T20:21:21.860Z,25.20
2022-09-12T20:23:48.670Z,25.10
2022-09-12T20:26:15.519Z,25.20
2022-09-12T20:29:00.612Z,25.30
2022-09-12T20:31:27.412Z,25.20
2022-09-12T20:33:54.428Z,25.20
2022-09-12T20:36:21.624Z,25.30
2022-09-12T20:38:50.265Z,25.30
2022-09-12T20:41:17.625Z,25.20
2022-09-12T20:43:44.256Z,25.30
2022-09-12T20:46:11.557Z,25.20
2022-09-12T20:48:38.836Z,25.30
2022-09-12T20:51:05.936Z,25.20
2022-09-12T20:53:35.178Z,25.10
2022-09-12T20:56:02.808Z,25.20
2022-09-12T20:58:29.510Z,25.20
2022-09-12T21:00:56.316Z,25.20
2022-09-12T21:03:23.060Z,25.10
2022-09-12T21:05:49.748Z,25.00
2022-09-12T21:08:16.644Z,25.00
2022-09-12T21:11:01.802Z,24.90
2022-09-12T21:13:28.720Z,25.00
2022-09-12T21:15:58.878Z,25.00
2022-09-12T21:18:44.302Z,25.00
2022-09-12T21:21:11.905Z,25.00
2022-09-12T21:23:38.661Z,25.10
2022-09-12T21:26:05.893Z,25.10
2022-09-12T21:28:32.558Z,25.10
2022-09-12T21:31:00.170Z,25.00
2022-09-12T21:36:12.010Z,25.10
2022-09-12T21:38:38.832Z,25.10
2022-09-12T21:43:50.979Z,25.00
2022-09-12T21:46:36.566Z,25.00
2022-09-12T21:49:03.590Z,25.00
2022-09-12T21:51:30.943Z,25.00
2022-09-12T21:53:57.617Z,25.00
2022-09-12T21:56:24.443Z,25.00
2022-09-12T21:58:51.200Z,24.80
2022-09-12T22:01:17.894Z,24.80
2022-09-12T22:03:44.977Z,24.80
2022-09-12T22:06:11.811Z,24.80
2022-09-12T22:08:38.863Z,24.90
2022-09-12T22:11:07.992Z,24.90
2022-09-12T22:13:35.326Z,24.90
2022-09-12T22:16:03.170Z,24.90
2022-09-12T22:18:32.540Z,24.90
2022-09-12T22:24:06.275Z,24.90
2022-09-12T22:26:42.116Z,24.90
2022-09-12T22:29:11.725Z,24.90
2022-09-12T22:31:38.570Z,24.90
2022-09-12T22:34:23.991Z,24.90
2022-09-12T22:36:50.642Z,24.90
2022-09-12T22:42:03.802Z,24.90
2022-09-12T22:44:30.603Z,24.80
2022-09-12T22:46:57.304Z,24.80
2022-09-12T22:49:24.088Z,24.90
2022-09-12T22:51:50.722Z,24.90
2022-09-12T22:54:17.464Z,24.80
2022-09-12T22:56:44.321Z,24.80
2022-09-12T22:59:11.138Z,24.90
2022-09-12T23:01:37.758Z,24.80
2022-09-12T23:04:05.292Z,24.80
2022-09-12T23:06:50.279Z,24.90
2022-09-12T23:09:16.958Z,24.90
2022-09-12T23:11:43.580Z,24.90
2022-09-12T23:14:10.268Z,24.90
2022-09-12T23:16:36.997Z,24.90
2022-09-12T23:19:03.670Z,24.90
2022-09-12T23:24:14.877Z,24.90
2022-09-12T23:26:41.513Z,24.80
2022-09-12T23:29:08.772Z,24.80
2022-09-12T23:34:19.556Z,24.90
2022-09-12T23:36:46.356Z,24.70
2022-09-12T23:39:13.081Z,24.70
2022-09-12T23:41:40.449Z,24.80
2022-09-12T23:46:51.115Z,24.80
2022-09-12T23:49:17.833Z,24.80
2022-09-12T23:52:03.844Z,24.80
2022-09-12T23:54:30.684Z,24.70
2022-09-12T23:56:57.331Z,24.70
2022-09-12T23:59:23.995Z,24.70
